createdAt,value
2022-08-28T00:00:42.509Z,13.78
2022-08-28T00:01:42.480Z,13.75
2022-08-28T00:02:42.559Z,13.75
2022-08-28T00:03:42.441Z,13.74
2022-08-28T00:04:42.502Z,13.74
2022-08-28T00:05:42.440Z,13.74
2022-08-28T00:06:42.392Z,13.72
2022-08-28T00:07:47.868Z,13.75
2022-08-28T00:08:45.372Z,13.77
2022-08-28T00:09:42.352Z,13.74
2022-08-28T00:10:42.373Z,13.71
2022-08-28T00:11:42.323Z,13.68
2022-08-28T00:12:42.319Z,13.68
2022-08-28T00:13:42.295Z,13.70
2022-08-28T00:14:42.284Z,13.71
2022-08-28T00:15:42.340Z,13.70
2022-08-28T00:16:42.294Z,13.71
2022-08-28T00:17:42.235Z,13.71
2022-08-28T00:18:42.407Z,13.72
2022-08-28T00:19:42.216Z,13.71
2022-08-28T00:20:42.263Z,13.74
2022-08-28T00:21:42.228Z,13.75
2022-08-28T00:22:42.188Z,13.74
2022-08-28T00:23:42.832Z,13.75
2022-08-28T00:24:42.178Z,13.75
2022-08-28T00:25:42.169Z,13.72
2022-08-28T00:26:42.118Z,13.74
2022-08-28T00:27:45.109Z,13.75
2022-08-28T00:28:45.140Z,13.77
2022-08-28T00:29:42.141Z,13.74
2022-08-28T00:30:42.080Z,13.74
2022-08-28T00:31:42.103Z,13.75
2022-08-28T00:32:42.051Z,13.75
2022-08-28T00:33:42.042Z,13.74
2022-08-28T00:34:42.053Z,13.74
2022-08-28T00:35:42.022Z,13.72
2022-08-28T00:36:42.002Z,13.71
2022-08-28T00:37:41.972Z,13.71
2022-08-28T00:38:41.983Z,13.71
2022-08-28T00:39:41.936Z,13.70
2022-08-28T00:40:42.023Z,13.71
2022-08-28T00:41:41.933Z,13.67
2022-08-28T00:42:41.903Z,13.67
2022-08-28T00:43:41.954Z,13.65
2022-08-28T00:44:41.875Z,13.63
2022-08-28T00:45:41.877Z,13.65
2022-08-28T00:46:41.914Z,13.65
2022-08-28T00:47:44.854Z,13.63
2022-08-28T00:48:44.898Z,13.67
2022-08-28T00:49:41.817Z,13.65
2022-08-28T00:50:41.797Z,13.70
2022-08-28T00:51:41.799Z,13.68
2022-08-28T00:52:41.778Z,13.67
2022-08-28T00:53:41.778Z,13.67
2022-08-28T00:54:41.774Z,13.65
2022-08-28T00:55:42.740Z,13.63
2022-08-28T00:56:41.699Z,13.62
2022-08-28T00:57:41.699Z,13.62
2022-08-28T00:58:41.677Z,13.60
2022-08-28T00:59:41.708Z,13.59
2022-08-28T01:00:41.679Z,13.56
2022-08-28T01:01:41.717Z,13.56
2022-08-28T01:02:41.685Z,13.54
2022-08-28T01:03:41.612Z,13.54
2022-08-28T01:04:41.602Z,13.54
2022-08-28T01:05:41.765Z,13.53
2022-08-28T01:06:41.565Z,13.53
2022-08-28T01:07:44.593Z,13.53
2022-08-28T01:08:44.571Z,13.56
2022-08-28T01:09:42.546Z,13.56
2022-08-28T01:10:41.524Z,13.56
2022-08-28T01:11:41.535Z,13.60
2022-08-28T01:12:41.484Z,13.60
2022-08-28T01:13:41.467Z,13.59
2022-08-28T01:14:41.448Z,13.56
2022-08-28T01:15:41.520Z,13.56
2022-08-28T01:16:41.613Z,13.56
2022-08-28T01:17:42.239Z,13.60
2022-08-28T01:18:41.407Z,13.59
2022-08-28T01:19:41.387Z,13.60
2022-08-28T01:20:41.378Z,13.59
2022-08-28T01:21:41.358Z,13.60
2022-08-28T01:22:41.398Z,13.57
2022-08-28T01:23:41.348Z,13.56
2022-08-28T01:24:41.320Z,13.54
2022-08-28T01:25:41.319Z,13.53
2022-08-28T01:26:41.308Z,13.52
2022-08-28T01:27:44.365Z,13.52
2022-08-28T01:28:44.280Z,13.53
2022-08-28T01:29:41.252Z,13.50
2022-08-28T01:30:41.250Z,13.49
2022-08-28T01:31:41.322Z,13.47
2022-08-28T01:32:41.217Z,13.44
2022-08-28T01:33:42.613Z,13.42
2022-08-28T01:34:41.183Z,13.42
2022-08-28T01:35:41.181Z,13.41
2022-08-28T01:36:41.170Z,13.39
2022-08-28T01:37:41.163Z,13.41
2022-08-28T01:38:41.138Z,13.42
2022-08-28T01:39:41.174Z,13.42
2022-08-28T01:40:41.165Z,13.39
2022-08-28T01:41:41.085Z,13.39
2022-08-28T01:42:41.086Z,13.35
2022-08-28T01:43:41.053Z,13.33
2022-08-28T01:44:41.057Z,13.33
2022-08-28T01:45:41.056Z,13.30
2022-08-28T01:46:41.095Z,13.27
2022-08-28T01:47:44.013Z,13.27
2022-08-28T01:48:44.039Z,13.28
2022-08-28T01:49:40.980Z,13.25
2022-08-28T01:50:41.037Z,13.22
2022-08-28T01:51:40.962Z,13.20
2022-08-28T01:52:40.939Z,13.20
2022-08-28T01:53:40.978Z,13.20
2022-08-28T01:54:40.910Z,13.22
2022-08-28T01:55:40.900Z,13.22
2022-08-28T01:56:40.928Z,13.22
2022-08-28T01:57:40.941Z,13.23
2022-08-28T01:58:40.880Z,13.25
2022-08-28T01:59:40.861Z,13.27
2022-08-28T02:00:40.841Z,13.28
2022-08-28T02:01:40.868Z,13.31
2022-08-28T02:02:40.792Z,13.31
2022-08-28T02:03:40.792Z,13.33
2022-08-28T02:04:40.807Z,13.33
2022-08-28T02:05:40.774Z,13.33
2022-08-28T02:06:40.894Z,13.31
2022-08-28T02:07:43.741Z,13.30
2022-08-28T02:08:43.746Z,13.30
2022-08-28T02:09:40.725Z,13.25
2022-08-28T02:10:40.724Z,13.23
2022-08-28T02:11:40.687Z,13.22
2022-08-28T02:12:40.686Z,13.22
2022-08-28T02:13:40.734Z,13.18
2022-08-28T02:14:40.636Z,13.18
2022-08-28T02:15:40.684Z,13.16
2022-08-28T02:16:40.610Z,13.15
2022-08-28T02:17:40.616Z,13.12
2022-08-28T02:18:40.605Z,13.11
2022-08-28T02:19:40.589Z,13.11
2022-08-28T02:20:40.561Z,13.08
2022-08-28T02:21:40.550Z,13.04
2022-08-28T02:22:40.517Z,13.01
2022-08-28T02:23:40.538Z,13.01
2022-08-28T02:24:40.491Z,13.00
2022-08-28T02:25:40.513Z,12.98
2022-08-28T02:26:40.473Z,12.97
2022-08-28T02:27:43.461Z,12.94
2022-08-28T02:28:43.489Z,12.95
2022-08-28T02:29:40.452Z,12.93
2022-08-28T02:30:40.471Z,12.93
2022-08-28T02:31:40.431Z,12.91
2022-08-28T02:32:40.383Z,12.91
2022-08-28T02:33:40.372Z,12.93
2022-08-28T02:34:40.355Z,12.93
2022-08-28T02:35:40.402Z,12.90
2022-08-28T02:36:40.335Z,12.93
2022-08-28T02:37:40.344Z,12.91
2022-08-28T02:38:40.305Z,12.91
2022-08-28T02:39:40.288Z,12.90
2022-08-28T02:40:40.332Z,12.91
2022-08-28T02:41:40.467Z,12.90
2022-08-28T02:42:40.247Z,12.87
2022-08-28T02:43:40.236Z,12.87
2022-08-28T02:44:40.227Z,12.85
2022-08-28T02:45:40.216Z,12.83
2022-08-28T02:46:40.178Z,12.83
2022-08-28T02:47:43.309Z,12.83
2022-08-28T02:48:43.201Z,12.85
2022-08-28T02:49:40.148Z,12.80
2022-08-28T02:50:40.128Z,12.82
2022-08-28T02:51:40.110Z,12.80
2022-08-28T02:52:40.536Z,12.83
2022-08-28T02:53:40.156Z,12.82
2022-08-28T02:54:40.101Z,12.83
2022-08-28T02:55:40.078Z,12.83
2022-08-28T02:56:40.061Z,12.82
2022-08-28T02:57:40.055Z,12.83
2022-08-28T02:58:40.053Z,12.85
2022-08-28T02:59:40.023Z,12.86
2022-08-28T03:00:40.023Z,12.86
2022-08-28T03:01:40.018Z,12.87
2022-08-28T03:02:40.028Z,12.87
2022-08-28T03:03:40.951Z,12.90
2022-08-28T03:04:39.973Z,12.90
2022-08-28T03:05:39.933Z,12.91
2022-08-28T03:06:39.945Z,12.90
2022-08-28T03:07:42.905Z,12.91
2022-08-28T03:08:42.968Z,12.91
2022-08-28T03:09:39.895Z,12.85
2022-08-28T03:10:39.859Z,12.86
2022-08-28T03:11:39.869Z,12.83
2022-08-28T03:12:39.855Z,12.80
2022-08-28T03:13:39.826Z,12.79
2022-08-28T03:14:39.867Z,12.73
2022-08-28T03:15:39.808Z,12.73
2022-08-28T03:16:39.924Z,12.67
2022-08-28T03:17:39.750Z,12.64
2022-08-28T03:18:39.758Z,12.61
2022-08-28T03:19:39.772Z,12.57
2022-08-28T03:20:39.759Z,12.55
2022-08-28T03:21:39.725Z,12.50
2022-08-28T03:22:39.723Z,12.49
2022-08-28T03:23:39.684Z,12.49
2022-08-28T03:24:39.672Z,12.46
2022-08-28T03:25:39.681Z,12.46
2022-08-28T03:26:39.654Z,12.45
2022-08-28T03:27:42.705Z,12.45
2022-08-28T03:28:42.638Z,12.46
2022-08-28T03:29:39.591Z,12.43
2022-08-28T03:30:39.611Z,12.40
2022-08-28T03:31:39.586Z,12.39
2022-08-28T03:32:39.574Z,12.39
2022-08-28T03:33:42.518Z,12.39
2022-08-28T03:34:39.563Z,12.39
2022-08-28T03:35:39.525Z,12.36
2022-08-28T03:36:39.526Z,12.35
2022-08-28T03:37:39.516Z,12.31
2022-08-28T03:38:39.527Z,12.31
2022-08-28T03:39:39.656Z,12.31
2022-08-28T03:40:39.521Z,12.29
2022-08-28T03:41:39.436Z,12.31
2022-08-28T03:42:39.539Z,12.29
2022-08-28T03:43:39.448Z,12.32
2022-08-28T03:44:39.408Z,12.32
2022-08-28T03:45:39.426Z,12.29
2022-08-28T03:46:39.368Z,12.29
2022-08-28T03:47:42.349Z,12.29
2022-08-28T03:48:42.681Z,12.32
2022-08-28T03:49:39.519Z,12.28
2022-08-28T03:50:39.348Z,12.28
2022-08-28T03:51:39.310Z,12.25
2022-08-28T03:52:39.300Z,12.22
2022-08-28T03:53:39.271Z,12.21
2022-08-28T03:54:39.322Z,12.20
2022-08-28T03:55:39.302Z,12.20
2022-08-28T03:56:39.257Z,12.20
2022-08-28T03:57:39.241Z,12.20
2022-08-28T03:58:39.233Z,12.18
2022-08-28T03:59:39.204Z,12.15
2022-08-28T04:00:39.175Z,12.13
2022-08-28T04:01:39.232Z,12.10
2022-08-28T04:02:39.185Z,12.10
2022-08-28T04:03:39.235Z,12.07
2022-08-28T04:04:39.143Z,12.07
2022-08-28T04:05:39.117Z,12.07
2022-08-28T04:06:39.106Z,12.04
2022-08-28T04:07:42.118Z,12.04
2022-08-28T04:08:42.119Z,12.04
2022-08-28T04:09:39.089Z,12.03
2022-08-28T04:10:39.049Z,12.00
2022-08-28T04:11:39.038Z,11.99
2022-08-28T04:12:39.067Z,12.00
2022-08-28T04:13:39.036Z,12.00
2022-08-28T04:14:39.007Z,11.99
2022-08-28T04:15:38.970Z,11.97
2022-08-28T04:16:39.023Z,11.95
2022-08-28T04:17:38.962Z,11.97
2022-08-28T04:18:39.001Z,11.95
2022-08-28T04:19:38.921Z,11.94
2022-08-28T04:20:38.929Z,11.91
2022-08-28T04:21:38.885Z,11.88
2022-08-28T04:22:38.885Z,11.88
2022-08-28T04:23:38.856Z,11.84
2022-08-28T04:24:38.864Z,11.86
2022-08-28T04:25:38.844Z,11.84
2022-08-28T04:26:38.822Z,11.81
2022-08-28T04:27:41.797Z,11.81
2022-08-28T04:28:41.805Z,11.81
2022-08-28T04:29:38.845Z,11.78
2022-08-28T04:30:38.753Z,11.78
2022-08-28T04:31:38.771Z,11.78
2022-08-28T04:32:38.736Z,11.75
2022-08-28T04:33:38.707Z,11.73
2022-08-28T04:34:38.754Z,11.73
2022-08-28T04:35:38.668Z,11.73
2022-08-28T04:36:38.685Z,11.72
2022-08-28T04:37:38.637Z,11.72
2022-08-28T04:38:43.504Z,11.69
2022-08-28T04:39:39.668Z,11.69
2022-08-28T04:40:38.651Z,11.70
2022-08-28T04:41:38.604Z,11.70
2022-08-28T04:42:38.581Z,11.69
2022-08-28T04:43:38.571Z,11.69
2022-08-28T04:44:38.560Z,11.68
2022-08-28T04:45:38.585Z,11.70
2022-08-28T04:46:38.565Z,11.68
2022-08-28T04:47:41.542Z,11.70
2022-08-28T04:48:41.508Z,11.72
2022-08-28T04:49:46.072Z,11.69
2022-08-28T04:50:38.481Z,11.72
2022-08-28T04:53:05.082Z,11.75
2022-08-28T04:54:00.819Z,11.77
2022-08-28T04:55:00.785Z,11.80
2022-08-28T04:56:00.813Z,11.81
2022-08-28T04:57:00.763Z,11.91
2022-08-28T04:58:00.766Z,12.09
2022-08-28T04:59:00.693Z,12.15
2022-08-28T05:00:00.674Z,12.18
2022-08-28T05:01:00.695Z,12.42
2022-08-28T05:02:00.728Z,12.87
2022-08-28T05:03:00.686Z,13.28
2022-08-28T05:04:00.613Z,13.70
2022-08-28T05:05:00.646Z,14.07
2022-08-28T05:06:00.656Z,14.37
2022-08-28T05:07:00.689Z,14.73
2022-08-28T05:08:00.625Z,15.04
2022-08-28T05:09:00.577Z,15.37
2022-08-28T05:10:00.541Z,15.70
2022-08-28T05:11:00.526Z,15.95
2022-08-28T05:12:03.528Z,16.24
2022-08-28T05:13:03.520Z,16.54
2022-08-28T05:14:00.510Z,16.76
2022-08-28T05:15:00.474Z,17.04
2022-08-28T05:16:00.485Z,17.30
2022-08-28T05:17:00.452Z,17.49
2022-08-28T05:18:00.431Z,17.56
2022-08-28T05:19:00.487Z,17.74
2022-08-28T05:20:00.403Z,18.00
2022-08-28T05:21:00.460Z,18.23
2022-08-28T05:22:00.384Z,18.50
2022-08-28T05:23:00.354Z,18.70
2022-08-28T05:24:00.377Z,18.95
2022-08-28T05:25:00.354Z,19.16
2022-08-28T05:26:00.459Z,19.36
2022-08-28T05:27:00.303Z,19.55
2022-08-28T05:28:00.297Z,19.76
2022-08-28T05:29:00.278Z,19.95
2022-08-28T05:30:02.106Z,20.10
2022-08-28T05:31:00.250Z,20.26
2022-08-28T05:32:03.281Z,20.40
2022-08-28T05:33:03.277Z,20.56
2022-08-28T05:34:00.246Z,20.70
2022-08-28T05:35:00.228Z,20.87
2022-08-28T05:36:00.191Z,21.07
2022-08-28T05:37:00.171Z,21.27
2022-08-28T05:38:00.346Z,21.50
2022-08-28T05:39:00.170Z,21.69
2022-08-28T05:40:00.364Z,21.88
2022-08-28T05:41:00.111Z,22.02
2022-08-28T05:42:00.221Z,22.11
2022-08-28T05:43:00.091Z,22.20
2022-08-28T05:44:00.074Z,22.32
2022-08-28T05:45:00.081Z,22.44
2022-08-28T05:46:00.329Z,22.53
2022-08-28T05:47:00.065Z,22.65
2022-08-28T05:48:00.033Z,22.75
2022-08-28T05:49:00.013Z,22.85
2022-08-28T05:49:59.994Z,22.91
2022-08-28T05:50:59.997Z,22.93
2022-08-28T05:52:02.994Z,22.91
2022-08-28T05:53:02.957Z,22.85
2022-08-28T05:53:59.936Z,22.72
2022-08-28T05:54:59.918Z,22.59
2022-08-28T05:55:59.977Z,22.35
2022-08-28T05:56:59.900Z,22.13
2022-08-28T05:57:59.886Z,21.91
2022-08-28T05:58:59.869Z,21.64
2022-08-28T05:59:59.850Z,21.36
2022-08-28T06:00:59.841Z,21.09
2022-08-28T06:02:03.628Z,20.78
2022-08-28T06:02:59.832Z,20.50
2022-08-28T06:03:59.854Z,20.19
2022-08-28T06:04:59.790Z,19.84
2022-08-28T06:05:59.773Z,19.34
2022-08-28T06:06:59.782Z,19.11
2022-08-28T06:07:59.766Z,18.84
2022-08-28T06:08:59.742Z,18.65
2022-08-28T06:09:59.728Z,18.53
2022-08-28T06:10:59.705Z,18.38
2022-08-28T06:12:02.725Z,18.22
2022-08-28T06:13:02.695Z,18.16
2022-08-28T06:13:59.669Z,18.07
2022-08-28T06:14:59.676Z,17.90
2022-08-28T06:15:59.697Z,17.76
2022-08-28T06:16:59.627Z,17.64
2022-08-28T06:17:59.617Z,17.63
2022-08-28T06:18:59.637Z,17.49
2022-08-28T06:19:59.639Z,17.42
2022-08-28T06:20:59.578Z,17.34
2022-08-28T06:21:59.558Z,17.30
2022-08-28T06:22:59.550Z,17.31
2022-08-28T06:23:59.529Z,17.33
2022-08-28T06:24:59.510Z,17.29
2022-08-28T06:25:59.528Z,17.16
2022-08-28T06:26:59.485Z,17.20
2022-08-28T06:27:59.483Z,17.16
2022-08-28T06:28:59.462Z,17.15
2022-08-28T06:29:59.472Z,17.22
2022-08-28T06:31:23.277Z,17.26
2022-08-28T06:32:03.463Z,17.27
2022-08-28T06:33:02.422Z,17.33
2022-08-28T06:33:59.383Z,17.33
2022-08-28T06:34:59.416Z,17.38
2022-08-28T06:35:59.369Z,17.39
2022-08-28T06:36:59.343Z,17.44
2022-08-28T06:37:59.325Z,17.41
2022-08-28T06:38:59.345Z,17.36
2022-08-28T06:39:59.365Z,17.36
2022-08-28T06:40:59.287Z,17.41
2022-08-28T06:41:59.270Z,17.44
2022-08-28T06:42:59.287Z,17.46
2022-08-28T06:43:59.262Z,17.48
2022-08-28T06:44:59.258Z,17.42
2022-08-28T06:45:59.252Z,17.42
2022-08-28T06:46:59.199Z,17.41
2022-08-28T06:47:59.204Z,17.38
2022-08-28T06:48:59.197Z,17.42
2022-08-28T06:49:59.191Z,17.49
2022-08-28T06:50:59.150Z,17.54
2022-08-28T06:52:02.150Z,17.57
2022-08-28T06:53:02.131Z,17.64
2022-08-28T06:53:59.112Z,17.64
2022-08-28T06:54:59.138Z,17.67
2022-08-28T06:55:59.083Z,17.74
2022-08-28T06:56:59.062Z,17.82
2022-08-28T06:57:59.063Z,17.86
2022-08-28T06:58:59.055Z,17.87
2022-08-28T06:59:59.085Z,17.89
2022-08-28T07:01:02.898Z,17.97
2022-08-28T07:01:59.164Z,18.07
2022-08-28T07:02:59.026Z,18.13
2022-08-28T07:03:58.987Z,18.16
2022-08-28T07:04:58.956Z,18.20
2022-08-28T07:05:58.976Z,18.20
2022-08-28T07:06:58.967Z,18.16
2022-08-28T07:07:58.929Z,18.20
2022-08-28T07:08:58.919Z,18.22
2022-08-28T07:09:58.899Z,18.25
2022-08-28T07:10:58.869Z,18.29
2022-08-28T07:12:01.908Z,18.35
2022-08-28T07:13:01.910Z,18.38
2022-08-28T07:13:58.860Z,18.33
2022-08-28T07:14:58.863Z,18.29
2022-08-28T07:15:58.876Z,18.31
2022-08-28T07:16:58.831Z,18.33
2022-08-28T07:17:58.811Z,18.31
2022-08-28T07:18:59.008Z,18.26
2022-08-28T07:19:58.773Z,18.29
2022-08-28T07:20:58.763Z,18.33
2022-08-28T07:21:58.734Z,18.35
2022-08-28T07:22:59.452Z,18.41
2022-08-28T07:23:58.723Z,18.41
2022-08-28T07:24:58.744Z,18.50
2022-08-28T07:25:58.696Z,18.60
2022-08-28T07:26:58.675Z,18.59
2022-08-28T07:27:58.683Z,18.63
2022-08-28T07:29:09.537Z,18.74
2022-08-28T07:29:59.833Z,18.81
2022-08-28T07:30:58.701Z,18.75
2022-08-28T07:32:01.607Z,18.74
2022-08-28T07:33:01.587Z,18.78
2022-08-28T07:33:58.790Z,18.78
2022-08-28T07:34:58.576Z,18.77
2022-08-28T07:35:59.563Z,18.78
2022-08-28T07:36:58.579Z,18.88
2022-08-28T07:37:58.520Z,18.90
2022-08-28T07:38:58.593Z,18.98
2022-08-28T07:39:58.530Z,18.98
2022-08-28T07:40:59.251Z,19.00
2022-08-28T07:41:58.471Z,18.99
2022-08-28T07:42:58.474Z,19.00
2022-08-28T07:43:58.441Z,19.02
2022-08-28T07:44:58.430Z,18.98
2022-08-28T07:45:58.462Z,18.95
2022-08-28T07:46:58.434Z,18.98
2022-08-28T07:47:58.400Z,18.99
2022-08-28T07:48:58.386Z,18.95
2022-08-28T07:49:58.365Z,19.00
2022-08-28T07:50:58.361Z,19.11
2022-08-28T07:52:01.495Z,19.16
2022-08-28T07:53:01.344Z,19.22
2022-08-28T07:53:58.297Z,19.21
2022-08-28T07:54:58.498Z,19.22
2022-08-28T07:55:58.366Z,19.27
2022-08-28T07:56:58.257Z,19.19
2022-08-28T07:57:58.368Z,19.08
2022-08-28T07:58:58.240Z,19.08
2022-08-28T07:59:58.229Z,19.26
2022-08-28T08:00:58.199Z,19.41
2022-08-28T08:01:58.232Z,19.62
2022-08-28T08:02:58.397Z,19.82
2022-08-28T08:04:01.872Z,19.86
2022-08-28T08:04:58.143Z,19.84
2022-08-28T08:05:58.133Z,19.67
2022-08-28T08:06:58.384Z,19.69
2022-08-28T08:07:58.109Z,19.77
2022-08-28T08:08:58.162Z,19.77
2022-08-28T08:09:58.094Z,19.77
2022-08-28T08:10:58.061Z,19.64
2022-08-28T08:12:01.077Z,19.51
2022-08-28T08:13:01.161Z,19.51
2022-08-28T08:13:58.064Z,19.49
2022-08-28T08:14:58.082Z,19.47
2022-08-28T08:15:58.063Z,19.45
2022-08-28T08:16:57.987Z,19.49
2022-08-28T08:17:57.987Z,19.51
2022-08-28T08:18:58.007Z,19.52
2022-08-28T08:19:57.960Z,19.49
2022-08-28T08:20:57.938Z,19.45
2022-08-28T08:21:57.951Z,19.48
2022-08-28T08:22:57.899Z,19.49
2022-08-28T08:23:57.899Z,19.66
2022-08-28T08:24:57.896Z,19.88
2022-08-28T08:25:58.047Z,20.02
2022-08-28T08:27:00.298Z,20.06
2022-08-28T08:27:57.831Z,19.82
2022-08-28T08:28:57.853Z,19.71
2022-08-28T08:29:57.842Z,19.69
2022-08-28T08:30:57.846Z,19.70
2022-08-28T08:32:00.805Z,19.69
2022-08-28T08:33:00.783Z,19.71
2022-08-28T08:33:57.762Z,19.62
2022-08-28T08:34:57.754Z,19.62
2022-08-28T08:35:57.734Z,19.71
2022-08-28T08:36:57.744Z,19.77
2022-08-28T08:38:01.829Z,19.79
2022-08-28T08:39:00.028Z,19.88
2022-08-28T08:39:57.784Z,19.86
2022-08-28T08:40:57.686Z,19.89
2022-08-28T08:41:57.637Z,19.92
2022-08-28T08:42:57.637Z,20.03
2022-08-28T08:43:57.626Z,20.24
2022-08-28T08:44:57.610Z,20.48
2022-08-28T08:45:57.674Z,20.66
2022-08-28T08:46:57.880Z,20.78
2022-08-28T08:47:57.562Z,20.80
2022-08-28T08:48:57.575Z,20.69
2022-08-28T08:49:57.540Z,20.56
2022-08-28T08:50:57.531Z,20.34
2022-08-28T08:52:00.533Z,20.13
2022-08-28T08:53:00.511Z,20.03
2022-08-28T08:53:57.483Z,19.82
2022-08-28T08:54:59.438Z,19.71
2022-08-28T08:55:57.464Z,19.62
2022-08-28T08:56:57.472Z,19.56
2022-08-28T08:57:57.424Z,19.66
2022-08-28T08:58:57.426Z,19.84
2022-08-28T08:59:57.415Z,20.04
2022-08-28T09:00:57.375Z,20.19
2022-08-28T09:01:57.461Z,20.31
2022-08-28T09:02:57.456Z,20.32
2022-08-28T09:03:57.506Z,20.34
2022-08-28T09:04:57.335Z,20.26
2022-08-28T09:05:57.327Z,20.19
2022-08-28T09:06:57.298Z,20.14
2022-08-28T09:07:57.319Z,20.18
2022-08-28T09:08:57.326Z,20.19
2022-08-28T09:09:57.272Z,20.19
2022-08-28T09:10:57.248Z,20.24
2022-08-28T09:12:00.257Z,20.28
2022-08-28T09:13:00.292Z,20.28
2022-08-28T09:13:57.217Z,20.19
2022-08-28T09:14:57.201Z,20.16
2022-08-28T09:15:57.246Z,20.19
2022-08-28T09:16:57.183Z,20.32
2022-08-28T09:17:57.182Z,20.28
2022-08-28T09:18:57.312Z,20.19
2022-08-28T09:19:57.155Z,20.24
2022-08-28T09:20:57.124Z,20.34
2022-08-28T09:21:57.095Z,20.55
2022-08-28T09:22:57.094Z,20.55
2022-08-28T09:23:57.075Z,20.50
2022-08-28T09:24:57.126Z,20.47
2022-08-28T09:25:57.086Z,20.55
2022-08-28T09:26:57.126Z,20.52
2022-08-28T09:27:57.027Z,20.50
2022-08-28T09:28:57.025Z,20.40
2022-08-28T09:29:56.997Z,20.41
2022-08-28T09:30:57.058Z,20.48
2022-08-28T09:31:59.979Z,20.55
2022-08-28T09:32:59.971Z,20.58
2022-08-28T09:33:57.410Z,20.58
2022-08-28T09:34:56.961Z,20.58
2022-08-28T09:35:56.933Z,20.58
2022-08-28T09:36:56.973Z,20.58
2022-08-28T09:37:56.920Z,20.62
2022-08-28T09:38:56.881Z,20.77
2022-08-28T09:39:56.893Z,20.75
2022-08-28T09:40:57.063Z,20.70
2022-08-28T09:41:56.838Z,20.62
2022-08-28T09:42:56.824Z,20.43
2022-08-28T09:43:56.815Z,20.34
2022-08-28T09:44:56.811Z,20.39
2022-08-28T09:45:56.856Z,20.31
2022-08-28T09:46:56.775Z,20.11
2022-08-28T09:47:56.805Z,20.19
2022-08-28T09:48:56.798Z,20.37
2022-08-28T09:49:56.734Z,20.48
2022-08-28T09:50:56.737Z,20.52
2022-08-28T09:51:59.716Z,20.72
2022-08-28T09:52:59.809Z,20.81
2022-08-28T09:54:05.944Z,20.80
2022-08-28T09:54:56.687Z,20.87
2022-08-28T09:55:56.671Z,20.90
2022-08-28T09:56:57.208Z,20.81
2022-08-28T09:57:56.705Z,20.97
2022-08-28T09:59:35.927Z,21.12
2022-08-28T10:00:02.386Z,21.39
2022-08-28T10:01:00.735Z,21.60
2022-08-28T10:01:56.695Z,21.62
2022-08-28T10:02:56.596Z,21.62
2022-08-28T10:03:56.897Z,21.48
2022-08-28T10:04:57.138Z,21.37
2022-08-28T10:05:56.557Z,21.39
2022-08-28T10:06:56.549Z,21.37
2022-08-28T10:07:56.518Z,21.37
2022-08-28T10:08:56.519Z,21.43
2022-08-28T10:09:56.568Z,21.46
2022-08-28T10:10:56.479Z,21.48
2022-08-28T10:11:59.470Z,21.35
2022-08-28T10:12:59.527Z,21.32
2022-08-28T10:13:56.431Z,21.18
2022-08-28T10:15:01.433Z,21.18
2022-08-28T10:15:56.433Z,21.24
2022-08-28T10:16:56.751Z,21.15
2022-08-28T10:17:56.963Z,21.14
2022-08-28T10:19:00.533Z,20.78
2022-08-28T10:19:56.553Z,20.50
2022-08-28T10:20:56.354Z,20.41
2022-08-28T10:22:01.776Z,20.34
2022-08-28T10:22:57.287Z,20.16
2022-08-28T10:24:02.886Z,20.06
2022-08-28T10:24:56.297Z,19.95
2022-08-28T10:25:56.316Z,19.96
2022-08-28T10:31:44.340Z,20.04
2022-08-28T10:35:36.219Z,20.07
2022-08-28T10:36:36.047Z,20.28
2022-08-28T10:38:35.785Z,20.85
2022-08-28T10:39:42.392Z,21.15
2022-08-28T10:40:15.550Z,21.51
2022-08-28T10:41:19.150Z,21.48
2022-08-28T10:42:14.499Z,21.21
2022-08-28T10:43:18.454Z,21.09
2022-08-28T10:44:14.512Z,20.95
2022-08-28T10:45:16.334Z,20.99
2022-08-28T10:46:14.588Z,20.97
2022-08-28T10:47:14.465Z,20.97
2022-08-28T10:48:14.581Z,20.85
2022-08-28T10:49:14.345Z,20.77
2022-08-28T10:50:14.324Z,20.82
2022-08-28T10:51:14.299Z,20.90
2022-08-28T10:52:14.288Z,21.00
2022-08-28T10:53:14.298Z,20.93
2022-08-28T10:54:14.271Z,20.85
2022-08-28T10:55:14.384Z,20.82
2022-08-28T10:56:14.299Z,20.99
2022-08-28T10:57:17.272Z,21.02
2022-08-28T10:58:25.060Z,21.15
2022-08-28T10:59:15.203Z,21.21
2022-08-28T11:00:14.180Z,21.11
2022-08-28T11:01:14.251Z,21.17
2022-08-28T11:02:14.287Z,21.09
2022-08-28T11:03:33.208Z,21.09
2022-08-28T11:04:15.153Z,21.00
2022-08-28T11:05:14.135Z,20.87
2022-08-28T11:06:14.165Z,20.70
2022-08-28T11:07:14.120Z,20.75
2022-08-28T11:08:14.347Z,20.75
2022-08-28T11:09:14.059Z,20.67
2022-08-28T11:10:14.049Z,20.75
2022-08-28T11:11:14.067Z,21.02
2022-08-28T11:12:14.047Z,21.12
2022-08-28T11:13:14.175Z,21.45
2022-08-28T11:14:13.996Z,21.50
2022-08-28T11:15:13.986Z,21.60
2022-08-28T11:16:13.969Z,21.70
2022-08-28T11:17:17.022Z,21.50
2022-08-28T11:18:16.950Z,21.29
2022-08-28T11:19:13.951Z,21.15
2022-08-28T11:20:13.925Z,21.07
2022-08-28T11:21:13.900Z,20.99
2022-08-28T11:22:13.891Z,20.93
2022-08-28T11:23:14.143Z,20.87
2022-08-28T11:24:13.872Z,20.82
2022-08-28T11:25:13.851Z,20.81
2022-08-28T11:26:13.833Z,20.95
2022-08-28T11:27:13.837Z,21.18
2022-08-28T11:28:13.825Z,21.35
2022-08-28T11:29:13.824Z,21.64
2022-08-28T11:30:13.774Z,22.00
2022-08-28T11:31:16.359Z,22.26
2022-08-28T11:32:14.747Z,22.50
2022-08-28T11:33:13.871Z,22.50
2022-08-28T11:34:13.768Z,22.54
2022-08-28T11:35:13.718Z,22.44
2022-08-28T11:36:13.697Z,22.43
2022-08-28T11:37:16.678Z,22.26
2022-08-28T11:38:19.973Z,22.11
2022-08-28T11:39:13.710Z,21.91
2022-08-28T11:40:13.734Z,21.88
2022-08-28T11:41:13.629Z,21.96
2022-08-28T11:42:13.615Z,21.57
2022-08-28T11:43:13.745Z,21.18
2022-08-28T11:44:13.581Z,21.17
2022-08-28T11:45:13.603Z,21.11
2022-08-28T11:46:13.611Z,21.15
2022-08-28T11:47:13.544Z,21.27
2022-08-28T11:48:13.523Z,21.32
2022-08-28T11:49:13.524Z,21.30
2022-08-28T11:50:13.570Z,21.37
2022-08-28T11:51:13.541Z,21.67
2022-08-28T11:52:13.477Z,21.95
2022-08-28T11:53:13.634Z,21.95
2022-08-28T11:54:13.445Z,21.80
2022-08-28T11:55:13.437Z,21.61
2022-08-28T11:56:13.482Z,21.46
2022-08-28T11:57:17.417Z,21.52
2022-08-28T11:58:17.470Z,21.77
2022-08-28T11:59:13.378Z,22.00
2022-08-28T12:00:13.368Z,22.20
2022-08-28T12:01:13.380Z,22.30
2022-08-28T12:02:14.126Z,22.28
2022-08-28T12:03:13.454Z,22.10
2022-08-28T12:04:13.370Z,21.72
2022-08-28T12:05:13.294Z,21.57
2022-08-28T12:06:13.356Z,21.43
2022-08-28T12:07:13.282Z,21.12
2022-08-28T12:08:13.263Z,20.92
2022-08-28T12:09:13.239Z,20.85
2022-08-28T12:10:13.258Z,20.80
2022-08-28T12:11:13.224Z,20.74
2022-08-28T12:12:13.256Z,20.52
2022-08-28T12:13:13.334Z,20.44
2022-08-28T12:14:13.198Z,20.41
2022-08-28T12:15:13.176Z,20.37
2022-08-28T12:16:13.183Z,20.40
2022-08-28T12:17:16.166Z,20.36
2022-08-28T12:18:16.155Z,20.44
2022-08-28T12:19:13.146Z,20.82
2022-08-28T12:20:13.118Z,21.18
2022-08-28T12:21:13.079Z,21.52
2022-08-28T12:22:13.112Z,21.85
2022-08-28T12:23:13.242Z,22.14
2022-08-28T12:24:13.055Z,22.43
2022-08-28T12:25:13.040Z,22.78
2022-08-28T12:26:13.031Z,23.05
2022-08-28T12:27:13.012Z,23.10
2022-08-28T12:28:13.200Z,22.98
2022-08-28T12:29:12.974Z,22.54
2022-08-28T12:30:12.973Z,22.73
2022-08-28T12:31:13.040Z,22.73
2022-08-28T12:32:12.961Z,22.55
2022-08-28T12:33:13.116Z,22.53
2022-08-28T12:34:12.936Z,22.23
2022-08-28T12:35:12.885Z,21.95
2022-08-28T12:36:12.895Z,21.60
2022-08-28T12:37:15.857Z,21.43
2022-08-28T12:38:15.893Z,21.50
2022-08-28T12:39:12.839Z,21.54
2022-08-28T12:40:12.946Z,21.58
2022-08-28T12:41:12.819Z,21.80
2022-08-28T12:42:12.800Z,21.83
2022-08-28T12:43:15.530Z,22.00
2022-08-28T12:44:12.770Z,22.14
2022-08-28T12:45:12.759Z,22.08
2022-08-28T12:46:18.914Z,22.17
2022-08-28T12:47:13.743Z,22.43
2022-08-28T12:48:12.733Z,22.73
2022-08-28T12:49:12.742Z,23.02
2022-08-28T12:50:12.693Z,23.13
2022-08-28T12:51:12.720Z,23.39
2022-08-28T12:52:16.651Z,23.40
2022-08-28T12:53:12.810Z,23.15
2022-08-28T12:54:12.636Z,22.63
2022-08-28T12:55:12.675Z,22.39
2022-08-28T12:56:12.648Z,22.29
2022-08-28T12:57:15.636Z,22.39
2022-08-28T12:58:15.622Z,22.32
2022-08-28T12:59:12.574Z,22.38
2022-08-28T13:00:12.568Z,22.32
2022-08-28T13:01:12.665Z,22.51
2022-08-28T13:02:12.715Z,22.72